ADDS METAR Data INFO
IDs: Format: Raw Decoded Include TAF

Data at: 2138 UTC 15 Dec 2017

KMAI 152053Z AUTO 33006KT 10SM FEW075 OVC100 11/03 A3012 RMK AO2 SLP198 T01110028 55002
KMAI 151953Z AUTO 31007KT 10SM OVC110 11/04 A3011 RMK AO2 SLP196 T01110039
KMAI 151853Z AUTO 31008KT 10SM OVC110 12/04 A3011 RMK AO2 SLP194 T01170044
KMAI 151753Z AUTO 31005KT 10SM OVC110 12/06 A3012 RMK AO2 SLP200 T01220061 10122 20072 51011
KMAI 151653Z AUTO 31005KT 10SM SCT120 12/06 A3012 RMK AO2 SLP198 T01170056
KMAI 151553Z AUTO 28003KT 10SM BKN120 11/06 A3013 RMK AO2 SLP203 T01060061
KMAI 151453Z AUTO 32004KT 10SM CLR 11/06 A3009 RMK AO2 SLP189 T01060056 53022
KMAI 151353Z AUTO 00000KT 10SM CLR 09/05 A3006 RMK AO2 SLP179 T00940050
KMAI 151253Z AUTO 00000KT 10SM CLR 08/04 A3004 RMK AO2 SLP172 T00780044
KMAI 151153Z AUTO 00000KT 10SM FEW120 08/06 A3003 RMK AO2 SLP167 T00780056 10083 20061 53005
KMAI 151053Z AUTO 00000KT 10SM CLR 08/05 A3001 RMK AO2 SLP163 T00780050 $
KMAI 150953Z AUTO 00000KT 10SM CLR 07/04 A3001 RMK AO2 SLP163 T00720044 $
KMAI 150853Z AUTO 00000KT 10SM CLR 07/04 A3001 RMK AO2 SLP162 T00670044 56004 $
KMAI 150753Z AUTO 00000KT 10SM CLR 08/04 A3002 RMK AO2 SLP163 T00780044 $
KMAI 150653Z AUTO 00000KT 10SM FEW110 07/04 A3002 RMK AO2 SLP164 T00670039 $
KMAI 150553Z AUTO 00000KT 10SM OVC120 07/04 A3002 RMK AO2 SLP166 T00720039 10133 20072 401890039 50000 $
KMAI 150453Z AUTO 00000KT 10SM BKN120 09/04 A3002 RMK AO2 SLP167 T00890039 $
KMAI 150353Z AUTO 00000KT 10SM CLR 09/04 A3002 RMK AO2 SLP166 T00890039 $
KMAI 150253Z AUTO 00000KT 10SM CLR 09/03 A3002 RMK AO2 SLP166 T00890033 51016 $
KMAI 150153Z AUTO 00000KT 10SM CLR 10/04 A3002 RMK AO2 SLP164 T01000039 $
KMAI 150053Z AUTO 00000KT 10SM CLR 11/03 A3000 RMK AO2 SLP157 T01110028
KMAI 142353Z AUTO 00000KT 10SM CLR 13/02 A2998 RMK AO2 SLP150 T01280022 10189 20128 51004
KMAI 142253Z AUTO 20004KT 10SM CLR 15/03 A2998 RMK AO2 SLP150 T01500028
KMAI 142153Z AUTO 23003KT 10SM CLR 17/01 A2997 RMK AO2 SLP148 T01670011
KMAI 142053Z AUTO 26004KT 10SM CLR 18/M01 A2996 RMK AO2 SLP146 T01781006 55008
KMAI 141953Z AUTO 27007KT 10SM CLR 19/M02 A2996 RMK AO2 SLP145 T01891022
KMAI 141853Z AUTO 23007KT 10SM CLR 18/M01 A2996 RMK AO2 SLP146 T01781006
KMAI 141753Z AUTO 29005KT 10SM CLR 17/03 A2999 RMK AO2 SLP155 T01720033 10172 20039 58013
KMAI 141653Z AUTO 25007KT 220V290 10SM CLR 16/03 A3002 RMK AO2 SLP164 T01560033
KMAI 141553Z AUTO 27006KT 10SM CLR 14/04 A3003 RMK AO2 SLP168 T01440044
KMAI 141453Z AUTO 26006KT 10SM CLR 12/06 A3003 RMK AO2 SLP168 T01220061 52017
KMAI 141353Z AUTO 23003KT 10SM CLR 08/05 A3001 RMK AO2 SLP162 T00780050
KMAI 141253Z AUTO 00000KT 10SM CLR 06/04 A3000 RMK AO2 SLP157 T00610039
KMAI 141153Z AUTO 00000KT 10SM CLR 05/03 A2998 RMK AO2 SLP151 T00500033 10067 20044 53000
KMAI 141053Z AUTO 00000KT 10SM CLR 05/03 A2997 RMK AO2 SLP147 T00500033
KMAI 140953Z AUTO 19003KT 10SM CLR 04/03 A2997 RMK AO2 SLP147 T00440033